createdAt,value
2023-05-06T00:00:16.816Z,954.48
2023-05-06T00:01:16.835Z,954.47
2023-05-06T00:02:16.821Z,954.47
2023-05-06T00:03:16.883Z,954.47
2023-05-06T00:04:16.790Z,954.44
2023-05-06T00:05:16.740Z,954.43
2023-05-06T00:06:16.752Z,954.42
2023-05-06T00:07:16.727Z,954.42
2023-05-06T00:08:16.697Z,954.40
2023-05-06T00:09:16.724Z,954.40
2023-05-06T00:10:16.711Z,954.36
2023-05-06T00:11:16.677Z,954.39
2023-05-06T00:12:16.651Z,954.34
2023-05-06T00:13:16.774Z,954.35
2023-05-06T00:14:16.659Z,954.36
2023-05-06T00:15:16.621Z,954.34
2023-05-06T00:16:16.683Z,954.32
2023-05-06T00:17:16.587Z,954.35
2023-05-06T00:18:16.561Z,954.35
2023-05-06T00:19:16.583Z,954.36
2023-05-06T00:20:16.534Z,954.32
2023-05-06T00:21:16.544Z,954.31
2023-05-06T00:22:16.538Z,954.31
2023-05-06T00:23:16.502Z,954.27
2023-05-06T00:24:16.478Z,954.27
2023-05-06T00:25:16.484Z,954.30
2023-05-06T00:26:16.495Z,954.28
2023-05-06T00:27:16.467Z,954.28
2023-05-06T00:28:16.439Z,954.28
2023-05-06T00:29:16.421Z,954.27
2023-05-06T00:30:16.405Z,954.26
2023-05-06T00:31:16.440Z,954.23
2023-05-06T00:32:16.409Z,954.24
2023-05-06T00:33:16.385Z,954.27
2023-05-06T00:34:16.352Z,954.25
2023-05-06T00:35:16.361Z,954.23
2023-05-06T00:36:16.353Z,954.20
2023-05-06T00:37:16.319Z,954.22
2023-05-06T00:38:16.298Z,954.20
2023-05-06T00:39:16.320Z,954.19
2023-05-06T00:40:16.277Z,954.21
2023-05-06T00:41:16.301Z,954.18
2023-05-06T00:42:16.271Z,954.19
2023-05-06T00:43:16.228Z,954.18
2023-05-06T00:44:16.220Z,954.19
2023-05-06T00:45:16.246Z,954.15
2023-05-06T00:46:16.231Z,954.15
2023-05-06T00:47:16.201Z,954.17
2023-05-06T00:48:16.339Z,954.13
2023-05-06T00:49:16.164Z,954.23
2023-05-06T00:50:16.139Z,954.19
2023-05-06T00:51:16.207Z,954.23
2023-05-06T00:52:16.170Z,954.13
2023-05-06T00:53:16.131Z,954.12
2023-05-06T00:54:16.123Z,954.10
2023-05-06T00:55:16.082Z,954.08
2023-05-06T00:56:16.051Z,954.09
2023-05-06T00:57:16.068Z,954.09
2023-05-06T00:58:16.105Z,954.13
2023-05-06T00:59:16.031Z,954.13
2023-05-06T01:00:15.992Z,954.11
2023-05-06T01:01:16.047Z,954.12
2023-05-06T01:02:16.029Z,954.11
2023-05-06T01:03:16.058Z,954.09
2023-05-06T01:04:15.973Z,954.13
2023-05-06T01:05:15.973Z,954.11
2023-05-06T01:06:15.934Z,954.09
2023-05-06T01:07:15.935Z,954.06
2023-05-06T01:08:15.976Z,954.05
2023-05-06T01:09:15.895Z,954.04
2023-05-06T01:10:15.877Z,954.04
2023-05-06T01:11:16.101Z,954.00
2023-05-06T01:12:15.891Z,953.99
2023-05-06T01:13:15.980Z,953.97
2023-05-06T01:14:15.823Z,954.02
2023-05-06T01:15:15.839Z,953.98
2023-05-06T01:16:15.793Z,954.04
2023-05-06T01:17:15.872Z,954.05
2023-05-06T01:18:15.809Z,954.03
2023-05-06T01:19:15.756Z,954.04
2023-05-06T01:20:15.763Z,954.02
2023-05-06T01:21:15.775Z,954.03
2023-05-06T01:22:15.746Z,954.05
2023-05-06T01:23:15.740Z,954.02
2023-05-06T01:24:15.694Z,953.99
2023-05-06T01:25:15.694Z,954.02
2023-05-06T01:26:15.674Z,954.04
2023-05-06T01:27:15.661Z,954.03
2023-05-06T01:28:15.666Z,954.01
2023-05-06T01:29:15.630Z,954.05
2023-05-06T01:30:15.635Z,954.04
2023-05-06T01:31:15.732Z,954.01
2023-05-06T01:32:15.703Z,953.99
2023-05-06T01:33:15.579Z,954.00
2023-05-06T01:34:15.635Z,953.99
2023-05-06T01:35:15.587Z,954.02
2023-05-06T01:36:15.529Z,954.03
2023-05-06T01:37:15.510Z,953.98
2023-05-06T01:38:15.508Z,954.03
2023-05-06T01:39:15.521Z,954.02
2023-05-06T01:40:15.489Z,954.02
2023-05-06T01:41:15.469Z,954.01
2023-05-06T01:42:15.455Z,954.03
2023-05-06T01:43:15.444Z,954.02
2023-05-06T01:44:15.453Z,954.00
2023-05-06T01:45:15.427Z,953.97
2023-05-06T01:46:15.457Z,954.01
2023-05-06T01:47:15.388Z,953.95
2023-05-06T01:48:15.374Z,953.91
2023-05-06T01:49:15.362Z,953.91
2023-05-06T01:50:15.363Z,953.89
2023-05-06T01:51:15.360Z,953.89
2023-05-06T01:52:15.303Z,953.89
2023-05-06T01:53:15.305Z,953.92
2023-05-06T01:54:15.289Z,953.93
2023-05-06T01:55:15.325Z,953.90
2023-05-06T01:56:15.308Z,953.91
2023-05-06T01:57:15.242Z,953.95
2023-05-06T01:58:15.256Z,953.93
2023-05-06T01:59:15.273Z,953.94
2023-05-06T02:00:15.212Z,953.96
2023-05-06T02:01:15.265Z,953.91
2023-05-06T02:02:15.196Z,953.86
2023-05-06T02:03:15.307Z,953.83
2023-05-06T02:04:15.205Z,953.89
2023-05-06T02:05:15.167Z,953.85
2023-05-06T02:06:15.185Z,953.84
2023-05-06T02:07:15.118Z,953.82
2023-05-06T02:08:15.148Z,953.86
2023-05-06T02:09:15.106Z,953.86
2023-05-06T02:10:15.073Z,953.83
2023-05-06T02:11:15.096Z,953.82
2023-05-06T02:12:15.060Z,953.83
2023-05-06T02:13:15.125Z,953.79
2023-05-06T02:14:15.027Z,953.81
2023-05-06T02:15:15.021Z,953.79
2023-05-06T02:16:15.079Z,953.82
2023-05-06T02:17:14.984Z,953.84
2023-05-06T02:18:14.993Z,953.83
2023-05-06T02:19:14.970Z,953.81
2023-05-06T02:20:14.946Z,953.83
2023-05-06T02:21:14.951Z,953.83
2023-05-06T02:22:14.981Z,953.79
2023-05-06T02:23:14.922Z,953.83
2023-05-06T02:24:14.892Z,953.84
2023-05-06T02:25:14.923Z,953.83
2023-05-06T02:26:14.860Z,953.85
2023-05-06T02:27:14.879Z,953.81
2023-05-06T02:28:14.834Z,953.82
2023-05-06T02:29:14.880Z,953.83
2023-05-06T02:30:14.874Z,953.81
2023-05-06T02:31:14.885Z,953.80
2023-05-06T02:32:14.785Z,953.76
2023-05-06T02:33:14.780Z,953.80
2023-05-06T02:34:14.788Z,953.77
2023-05-06T02:35:14.738Z,953.75
2023-05-06T02:36:14.760Z,953.79
2023-05-06T02:37:14.715Z,953.81
2023-05-06T02:38:14.748Z,953.79
2023-05-06T02:39:14.697Z,953.81
2023-05-06T02:40:14.676Z,953.79
2023-05-06T02:41:14.808Z,953.77
2023-05-06T02:42:14.690Z,953.81
2023-05-06T02:43:14.647Z,953.79
2023-05-06T02:44:14.647Z,953.75
2023-05-06T02:45:14.610Z,953.84
2023-05-06T02:46:14.632Z,953.82
2023-05-06T02:47:14.601Z,953.86
2023-05-06T02:48:14.608Z,953.82
2023-05-06T02:49:14.608Z,953.84
2023-05-06T02:50:14.542Z,953.85
2023-05-06T02:51:14.557Z,953.84
2023-05-06T02:52:14.525Z,953.84
2023-05-06T02:53:14.503Z,953.84
2023-05-06T02:54:35.521Z,953.83
2023-05-06T02:55:14.500Z,953.86
2023-05-06T02:56:14.479Z,953.83
2023-05-06T02:57:14.459Z,953.76
2023-05-06T02:58:14.507Z,953.77
2023-05-06T02:59:14.477Z,953.77
2023-05-06T03:00:14.421Z,953.75
2023-05-06T03:01:14.408Z,953.76
2023-05-06T03:02:14.391Z,953.76
2023-05-06T03:03:14.369Z,953.74
2023-05-06T03:04:14.425Z,953.79
2023-05-06T03:05:14.345Z,953.80
2023-05-06T03:06:14.347Z,953.79
2023-05-06T03:07:14.316Z,953.80
2023-05-06T03:08:14.313Z,953.74
2023-05-06T03:09:14.319Z,953.76
2023-05-06T03:10:14.316Z,953.71
2023-05-06T03:11:14.353Z,953.72
2023-05-06T03:12:14.270Z,953.66
2023-05-06T03:13:14.345Z,953.61
2023-05-06T03:14:14.255Z,953.60
2023-05-06T03:15:14.214Z,953.65
2023-05-06T03:16:14.222Z,953.66
2023-05-06T03:17:14.171Z,953.69
2023-05-06T03:18:14.208Z,953.66
2023-05-06T03:19:14.163Z,953.64
2023-05-06T03:20:14.149Z,953.69
2023-05-06T03:21:14.172Z,953.62
2023-05-06T03:22:14.176Z,953.65
2023-05-06T03:23:14.150Z,953.51
2023-05-06T03:24:14.099Z,953.56
2023-05-06T03:25:14.084Z,953.61
2023-05-06T03:26:14.105Z,953.66
2023-05-06T03:27:14.054Z,953.57
2023-05-06T03:28:14.045Z,953.58
2023-05-06T03:29:14.057Z,953.60
2023-05-06T03:30:14.020Z,953.57
2023-05-06T03:31:14.044Z,953.59
2023-05-06T03:32:14.011Z,953.61
2023-05-06T03:33:13.986Z,953.62
2023-05-06T03:34:13.976Z,953.66
2023-05-06T03:35:13.966Z,953.66
2023-05-06T03:36:14.009Z,953.64
2023-05-06T03:37:13.989Z,953.66
2023-05-06T03:38:13.908Z,953.63
2023-05-06T03:39:13.898Z,953.58
2023-05-06T03:40:13.899Z,953.61
2023-05-06T03:41:13.872Z,953.57
2023-05-06T03:42:13.881Z,953.57
2023-05-06T03:43:13.876Z,953.49
2023-05-06T03:44:13.816Z,953.56
2023-05-06T03:45:13.839Z,953.58
2023-05-06T03:46:13.852Z,953.59
2023-05-06T03:47:13.775Z,953.56
2023-05-06T03:48:14.016Z,953.55
2023-05-06T03:49:13.764Z,953.55
2023-05-06T03:50:13.783Z,953.54
2023-05-06T03:51:13.779Z,953.52
2023-05-06T03:52:13.741Z,953.50
2023-05-06T03:53:13.740Z,953.46
2023-05-06T03:54:13.700Z,953.46
2023-05-06T03:55:13.679Z,953.45
2023-05-06T03:56:13.685Z,953.47
2023-05-06T03:57:13.634Z,953.45
2023-05-06T03:58:13.677Z,953.50
2023-05-06T03:59:13.639Z,953.51
2023-05-06T04:00:13.646Z,953.51
2023-05-06T04:01:13.591Z,953.56
2023-05-06T04:02:13.669Z,953.55
2023-05-06T04:03:13.629Z,953.56
2023-05-06T04:04:13.739Z,953.59
2023-05-06T04:05:13.544Z,953.64
2023-05-06T04:06:13.532Z,953.65
2023-05-06T04:07:13.528Z,953.61
2023-05-06T04:08:13.561Z,953.61
2023-05-06T04:09:13.470Z,953.65
2023-05-06T04:10:13.498Z,953.63
2023-05-06T04:11:13.474Z,953.70
2023-05-06T04:12:13.433Z,953.72
2023-05-06T04:13:13.510Z,953.67
2023-05-06T04:14:13.455Z,953.70
2023-05-06T04:15:13.429Z,953.70
2023-05-06T04:16:13.447Z,953.72
2023-05-06T04:17:13.397Z,953.68
2023-05-06T04:18:13.383Z,953.73
2023-05-06T04:19:13.347Z,953.70
2023-05-06T04:20:13.368Z,953.71
2023-05-06T04:21:13.331Z,953.71
2023-05-06T04:22:13.327Z,953.71
2023-05-06T04:23:13.299Z,953.72
2023-05-06T04:24:13.277Z,953.71
2023-05-06T04:26:40.759Z,953.67
2023-05-06T04:26:46.089Z,953.70
2023-05-06T04:27:46.084Z,953.69
2023-05-06T04:28:46.104Z,953.61
2023-05-06T04:29:46.095Z,953.62
2023-05-06T04:30:46.035Z,953.62
2023-05-06T04:31:46.082Z,953.66
2023-05-06T04:32:46.096Z,953.62
2023-05-06T04:33:46.033Z,953.68
2023-05-06T04:34:46.004Z,953.64
2023-05-06T04:35:46.001Z,953.66
2023-05-06T04:36:45.996Z,953.65
2023-05-06T04:37:45.948Z,953.67
2023-05-06T04:38:45.956Z,953.69
2023-05-06T04:39:46.021Z,953.68
2023-05-06T04:40:45.939Z,953.67
2023-05-06T04:41:45.894Z,953.70
2023-05-06T04:42:45.892Z,953.67
2023-05-06T04:43:45.900Z,953.71
2023-05-06T04:44:45.904Z,953.71
2023-05-06T04:45:45.891Z,953.66
2023-05-06T04:46:45.837Z,953.66
2023-05-06T04:47:45.876Z,953.69
2023-05-06T04:48:45.841Z,953.71
2023-05-06T04:49:45.792Z,953.72
2023-05-06T04:50:45.798Z,953.73
2023-05-06T04:51:45.766Z,953.72
2023-05-06T04:52:45.759Z,953.78
2023-05-06T04:53:45.788Z,953.80
2023-05-06T04:54:45.871Z,953.77
2023-05-06T04:55:45.727Z,953.80
2023-05-06T04:56:45.694Z,953.82
2023-05-06T04:57:45.680Z,953.85
2023-05-06T04:58:45.740Z,953.85
2023-05-06T04:59:45.695Z,953.83
2023-05-06T05:00:45.644Z,953.79
2023-05-06T05:01:45.687Z,953.85
2023-05-06T05:02:45.708Z,953.83
2023-05-06T05:03:45.649Z,953.81
2023-05-06T05:04:45.608Z,953.85
2023-05-06T05:05:45.577Z,953.84
2023-05-06T05:06:45.584Z,953.86
2023-05-06T05:07:45.580Z,953.88
2023-05-06T05:08:45.539Z,953.88
2023-05-06T05:09:45.533Z,953.90
2023-05-06T05:10:45.521Z,953.91
2023-05-06T05:11:45.502Z,953.89
2023-05-06T05:12:45.509Z,953.96
2023-05-06T05:13:45.477Z,953.95
2023-05-06T05:14:45.458Z,953.98
2023-05-06T05:15:45.448Z,953.99
2023-05-06T05:16:45.472Z,953.96
2023-05-06T05:17:45.460Z,953.95
2023-05-06T05:18:45.465Z,953.97
2023-05-06T05:19:45.382Z,953.99
2023-05-06T05:20:45.396Z,953.97
2023-05-06T05:21:45.369Z,953.97
2023-05-06T05:22:45.349Z,953.99
2023-05-06T05:23:45.342Z,953.99
2023-05-06T05:24:45.324Z,954.01
2023-05-06T05:25:46.266Z,954.01
2023-05-06T05:26:45.325Z,954.01
2023-05-06T05:27:45.284Z,954.04
2023-05-06T05:28:45.279Z,954.02
2023-05-06T05:29:45.252Z,954.02
2023-05-06T05:30:45.274Z,954.03
2023-05-06T05:31:45.284Z,954.03
2023-05-06T05:32:45.258Z,953.99
2023-05-06T05:33:45.293Z,953.97
2023-05-06T05:34:45.221Z,953.98
2023-05-06T05:35:45.178Z,954.00
2023-05-06T05:36:45.169Z,954.05
2023-05-06T05:37:45.185Z,954.07
2023-05-06T05:38:45.183Z,954.03
2023-05-06T05:39:45.124Z,954.05
2023-05-06T05:40:45.117Z,954.04
2023-05-06T05:41:45.121Z,954.09
2023-05-06T05:42:45.085Z,954.10
2023-05-06T05:43:45.087Z,954.07
2023-05-06T05:44:45.066Z,954.04
2023-05-06T05:45:45.048Z,954.10
2023-05-06T05:46:45.109Z,954.07
2023-05-06T05:47:45.077Z,954.09
2023-05-06T05:48:45.016Z,954.08
2023-05-06T05:49:44.994Z,954.04
2023-05-06T05:50:45.017Z,954.07
2023-05-06T05:51:44.965Z,954.06
2023-05-06T05:52:44.951Z,954.09
2023-05-06T05:53:44.946Z,954.12
2023-05-06T05:54:44.921Z,954.09
2023-05-06T05:55:44.926Z,954.12
2023-05-06T05:56:44.918Z,954.06
2023-05-06T05:57:44.884Z,954.09
2023-05-06T05:58:44.889Z,954.12
2023-05-06T05:59:44.862Z,954.12
2023-05-06T06:00:44.898Z,954.14
2023-05-06T06:01:44.837Z,954.10
2023-05-06T06:02:44.928Z,954.08
2023-05-06T06:03:44.976Z,954.13
2023-05-06T06:04:44.841Z,954.11
2023-05-06T06:05:44.779Z,954.10
2023-05-06T06:06:44.752Z,954.10
2023-05-06T06:07:44.768Z,954.13
2023-05-06T06:08:44.728Z,954.12
2023-05-06T06:09:44.751Z,954.14
2023-05-06T06:10:44.742Z,954.12
2023-05-06T06:11:44.719Z,954.14
2023-05-06T06:12:44.886Z,954.16
2023-05-06T06:13:44.716Z,954.18
2023-05-06T06:14:44.648Z,954.17
2023-05-06T06:15:44.638Z,954.18
2023-05-06T06:16:44.705Z,954.19
2023-05-06T06:17:44.641Z,954.15
2023-05-06T06:18:44.630Z,954.18
2023-05-06T06:19:44.586Z,954.15
2023-05-06T06:20:44.568Z,954.14
2023-05-06T06:21:44.582Z,954.10
2023-05-06T06:22:44.551Z,954.04
2023-05-06T06:23:44.557Z,953.89
2023-05-06T06:24:44.549Z,953.84
2023-05-06T06:25:44.536Z,953.85
2023-05-06T06:26:44.502Z,953.84
2023-05-06T06:27:44.493Z,953.86
2023-05-06T06:28:44.563Z,953.90
2023-05-06T06:29:44.473Z,953.98
2023-05-06T06:30:44.494Z,953.96
2023-05-06T06:31:44.507Z,953.98
2023-05-06T06:32:44.480Z,954.04
2023-05-06T06:33:44.398Z,953.99
2023-05-06T06:34:44.391Z,953.97
2023-05-06T06:35:44.409Z,953.93
2023-05-06T06:36:44.348Z,953.92
2023-05-06T06:37:44.327Z,953.94
2023-05-06T06:38:44.331Z,953.89
2023-05-06T06:39:44.363Z,953.94
2023-05-06T06:40:44.360Z,953.91
2023-05-06T06:41:44.308Z,953.93
2023-05-06T06:42:44.316Z,953.95
2023-05-06T06:43:44.255Z,954.00
2023-05-06T06:44:44.261Z,953.96
2023-05-06T06:45:44.295Z,953.95
2023-05-06T06:46:44.236Z,953.96
2023-05-06T06:47:44.245Z,954.00
2023-05-06T06:48:44.303Z,954.00
2023-05-06T06:49:44.251Z,953.96
2023-05-06T06:50:44.247Z,953.95
2023-05-06T06:51:44.197Z,953.99
2023-05-06T06:52:44.176Z,953.98
2023-05-06T06:53:44.228Z,954.04
2023-05-06T06:54:44.113Z,954.05
2023-05-06T06:55:44.237Z,954.02
2023-05-06T06:56:44.122Z,954.02
2023-05-06T06:57:44.227Z,954.02
2023-05-06T06:58:44.100Z,954.01
2023-05-06T06:59:44.070Z,953.98
2023-05-06T07:00:44.068Z,953.96
2023-05-06T07:01:44.136Z,953.95
2023-05-06T07:02:44.057Z,953.93
2023-05-06T07:03:44.020Z,953.89
2023-05-06T07:04:44.020Z,953.92
2023-05-06T07:05:44.048Z,953.92
2023-05-06T07:06:43.944Z,953.93
2023-05-06T07:07:43.938Z,953.96
2023-05-06T07:08:43.915Z,953.95
2023-05-06T07:09:43.936Z,954.04
2023-05-06T07:10:43.904Z,954.00
2023-05-06T07:11:43.888Z,953.98
2023-05-06T07:12:43.883Z,953.98
2023-05-06T07:13:43.871Z,953.96
2023-05-06T07:14:43.853Z,953.94
2023-05-06T07:15:43.850Z,953.93
2023-05-06T07:16:46.158Z,953.84
2023-05-06T07:17:43.841Z,953.84
2023-05-06T07:18:43.794Z,953.83
2023-05-06T07:19:43.807Z,953.83
2023-05-06T07:20:43.782Z,953.82
2023-05-06T07:21:43.757Z,953.87
2023-05-06T07:22:43.846Z,953.84
2023-05-06T07:23:43.795Z,953.88
2023-05-06T07:24:43.701Z,953.95
2023-05-06T07:25:43.700Z,953.92
2023-05-06T07:26:43.688Z,953.97
2023-05-06T07:27:43.689Z,953.93
2023-05-06T07:28:43.674Z,953.95
2023-05-06T07:29:43.635Z,953.93
2023-05-06T07:30:43.707Z,953.95
2023-05-06T07:31:43.613Z,953.95
2023-05-06T07:32:43.679Z,953.91
2023-05-06T07:33:43.596Z,953.94
2023-05-06T07:34:43.574Z,953.96
2023-05-06T07:35:43.589Z,954.02
2023-05-06T07:36:43.706Z,953.98
2023-05-06T07:37:43.587Z,954.03
2023-05-06T07:38:43.549Z,954.03
2023-05-06T07:39:43.524Z,954.04
2023-05-06T07:40:43.506Z,954.05
2023-05-06T07:41:43.498Z,954.06
2023-05-06T07:42:43.512Z,954.08
2023-05-06T07:43:43.469Z,954.09
2023-05-06T07:44:43.449Z,954.12
2023-05-06T07:45:43.476Z,954.10
2023-05-06T07:46:43.549Z,954.15
2023-05-06T07:47:43.505Z,954.10
2023-05-06T07:48:43.400Z,954.13
2023-05-06T07:49:43.414Z,954.12
2023-05-06T07:50:43.373Z,954.09
2023-05-06T07:51:43.375Z,954.10
2023-05-06T07:52:43.337Z,954.09
2023-05-06T07:53:43.418Z,954.10
2023-05-06T07:54:43.344Z,954.10
2023-05-06T07:55:43.304Z,954.11
2023-05-06T07:56:43.278Z,954.13
2023-05-06T07:57:43.296Z,954.13
2023-05-06T07:58:43.244Z,954.09
2023-05-06T07:59:43.244Z,954.10
2023-05-06T08:00:43.238Z,954.06
2023-05-06T08:01:43.214Z,954.08
2023-05-06T08:02:43.346Z,954.06
2023-05-06T08:03:43.513Z,954.08
2023-05-06T08:04:43.262Z,954.10
2023-05-06T08:05:43.158Z,954.12
2023-05-06T08:06:43.145Z,954.10
2023-05-06T08:07:43.155Z,954.13
2023-05-06T08:08:43.123Z,954.10
2023-05-06T08:09:43.116Z,954.07
2023-05-06T08:10:43.087Z,954.13
2023-05-06T08:11:43.082Z,954.12
2023-05-06T08:12:43.145Z,954.10
2023-05-06T08:13:43.088Z,954.10
2023-05-06T08:14:43.048Z,954.11
2023-05-06T08:15:43.046Z,954.07
2023-05-06T08:16:43.115Z,954.08
2023-05-06T08:17:43.046Z,954.10
2023-05-06T08:18:42.979Z,954.10
2023-05-06T08:19:43.007Z,954.12
2023-05-06T08:20:42.973Z,954.14
2023-05-06T08:21:42.938Z,954.10
2023-05-06T08:22:42.930Z,954.15
2023-05-06T08:23:42.930Z,954.11
2023-05-06T08:24:42.974Z,954.17
2023-05-06T08:25:42.963Z,954.13
2023-05-06T08:26:42.911Z,954.16
2023-05-06T08:27:42.935Z,954.17
2023-05-06T08:28:42.851Z,954.16
2023-05-06T08:29:42.839Z,954.15
2023-05-06T08:30:42.822Z,954.17
2023-05-06T08:31:42.869Z,954.18
2023-05-06T08:32:42.844Z,954.15
2023-05-06T08:33:42.821Z,954.14
2023-05-06T08:34:42.784Z,954.18
2023-05-06T08:35:42.781Z,954.17
2023-05-06T08:36:42.776Z,954.15
2023-05-06T08:37:42.724Z,954.19
2023-05-06T08:38:42.833Z,954.19
2023-05-06T08:39:42.697Z,954.18
2023-05-06T08:40:42.715Z,954.18
2023-05-06T08:41:42.717Z,954.15
2023-05-06T08:42:42.699Z,954.17
2023-05-06T08:43:42.668Z,954.14
2023-05-06T08:44:42.635Z,954.14
2023-05-06T08:45:42.725Z,954.10
2023-05-06T08:46:42.647Z,954.13
2023-05-06T08:47:42.610Z,954.12
2023-05-06T08:48:42.596Z,954.14
2023-05-06T08:49:42.601Z,954.14
2023-05-06T08:50:42.570Z,954.12
2023-05-06T08:51:42.551Z,954.15
2023-05-06T08:52:42.532Z,954.09
2023-05-06T08:53:42.549Z,954.09
2023-05-06T08:54:42.514Z,954.13
2023-05-06T08:55:42.605Z,954.08
2023-05-06T08:56:42.497Z,954.06
2023-05-06T08:57:42.686Z,954.10
2023-05-06T08:58:42.464Z,954.09
2023-05-06T08:59:42.463Z,954.09
2023-05-06T09:00:42.419Z,954.07
2023-05-06T09:01:42.472Z,954.08
2023-05-06T09:02:43.466Z,954.11
2023-05-06T09:03:42.468Z,954.13
2023-05-06T09:04:42.409Z,954.06
2023-05-06T09:05:42.351Z,954.07
2023-05-06T09:06:42.355Z,954.04
2023-05-06T09:07:42.343Z,954.03
2023-05-06T09:08:42.367Z,954.06
2023-05-06T09:09:42.315Z,954.07
2023-05-06T09:10:42.325Z,954.10
2023-05-06T09:11:42.311Z,954.06
2023-05-06T09:12:42.315Z,954.12
2023-05-06T09:13:42.255Z,954.13
2023-05-06T09:14:42.256Z,954.14
2023-05-06T09:15:42.281Z,954.13
2023-05-06T09:16:42.309Z,954.10
2023-05-06T09:17:42.234Z,954.13
2023-05-06T09:18:42.179Z,954.17
2023-05-06T09:19:42.176Z,954.14
2023-05-06T09:20:42.168Z,954.15
2023-05-06T09:21:42.175Z,954.17
2023-05-06T09:22:42.132Z,954.12
2023-05-06T09:23:42.116Z,954.15
2023-05-06T09:24:42.102Z,954.16
2023-05-06T09:25:42.103Z,954.16
2023-05-06T09:26:42.131Z,954.15
2023-05-06T09:27:42.080Z,954.18
2023-05-06T09:28:42.044Z,954.19
2023-05-06T09:29:42.056Z,954.24
2023-05-06T09:30:42.177Z,954.23
2023-05-06T09:31:42.035Z,954.26
2023-05-06T09:32:42.113Z,954.28
2023-05-06T09:33:41.987Z,954.31
2023-05-06T09:34:42.013Z,954.29
2023-05-06T09:35:42.011Z,954.24
2023-05-06T09:36:41.983Z,954.29
2023-05-06T09:37:41.942Z,954.27
2023-05-06T09:38:41.948Z,954.22
2023-05-06T09:39:41.912Z,954.21
2023-05-06T09:40:41.902Z,954.23
2023-05-06T09:41:41.908Z,954.21
2023-05-06T09:42:41.897Z,954.25
2023-05-06T09:43:41.845Z,954.25
2023-05-06T09:44:41.843Z,954.25
2023-05-06T09:45:41.823Z,954.22
2023-05-06T09:46:41.888Z,954.23
2023-05-06T09:47:41.854Z,954.22
2023-05-06T09:48:41.811Z,954.22
2023-05-06T09:49:41.779Z,954.16
2023-05-06T09:50:41.759Z,954.14
2023-05-06T09:51:41.782Z,954.14
2023-05-06T09:52:41.725Z,954.08
2023-05-06T09:53:41.755Z,954.07
2023-05-06T09:54:41.710Z,954.06
2023-05-06T09:55:41.692Z,954.06
2023-05-06T09:56:41.682Z,954.05
2023-05-06T09:57:41.709Z,954.06
2023-05-06T09:58:41.665Z,954.10
2023-05-06T09:59:41.650Z,954.17
2023-05-06T10:00:41.625Z,954.16
2023-05-06T10:01:41.640Z,954.17
2023-05-06T10:02:41.893Z,954.16
2023-05-06T10:03:41.715Z,954.16
2023-05-06T10:04:41.817Z,954.15
2023-05-06T10:05:41.567Z,954.16
2023-05-06T10:06:41.560Z,954.16
2023-05-06T10:07:41.565Z,954.17
2023-05-06T10:08:41.511Z,954.18
2023-05-06T10:09:41.601Z,954.19
2023-05-06T10:10:41.554Z,954.21
2023-05-06T10:11:41.491Z,954.23
2023-05-06T10:12:41.548Z,954.23
2023-05-06T10:13:41.461Z,954.24
2023-05-06T10:14:41.459Z,954.26
2023-05-06T10:15:41.472Z,954.26
2023-05-06T10:16:41.494Z,954.20
2023-05-06T10:17:41.421Z,954.19
2023-05-06T10:18:41.421Z,954.22
2023-05-06T10:19:41.377Z,954.21
2023-05-06T10:20:41.375Z,954.19
2023-05-06T10:21:41.363Z,954.22
2023-05-06T10:22:41.337Z,954.26
2023-05-06T10:23:41.323Z,954.25
2023-05-06T10:24:41.323Z,954.21
2023-05-06T10:25:41.323Z,954.22
2023-05-06T10:26:41.302Z,954.24
2023-05-06T10:27:41.288Z,954.20
2023-05-06T10:28:41.248Z,954.26
2023-05-06T10:29:41.225Z,954.22
2023-05-06T10:30:41.254Z,954.20
2023-05-06T10:31:41.256Z,954.21
2023-05-06T10:32:41.224Z,954.23
2023-05-06T10:33:42.351Z,954.19
2023-05-06T10:34:41.175Z,954.18
2023-05-06T10:35:41.200Z,954.19
2023-05-06T10:36:41.177Z,954.18
2023-05-06T10:37:41.120Z,954.19
2023-05-06T10:38:41.125Z,954.20
2023-05-06T10:39:42.251Z,954.18
2023-05-06T10:40:41.112Z,954.17
2023-05-06T10:41:41.081Z,954.21
2023-05-06T10:42:41.058Z,954.22
2023-05-06T10:43:41.054Z,954.15
2023-05-06T10:44:41.061Z,954.12
2023-05-06T10:45:41.034Z,954.14
2023-05-06T10:46:41.094Z,954.16
2023-05-06T10:47:41.030Z,954.14
2023-05-06T10:48:40.973Z,954.16
2023-05-06T10:49:40.968Z,954.16
2023-05-06T10:50:40.991Z,954.16
2023-05-06T10:51:40.933Z,954.17
2023-05-06T10:52:40.939Z,954.18
2023-05-06T10:53:40.916Z,954.15
2023-05-06T10:54:40.917Z,954.11
2023-05-06T10:55:40.882Z,954.15
2023-05-06T10:56:40.887Z,954.16
2023-05-06T10:57:40.871Z,954.12
2023-05-06T10:58:40.887Z,954.16
2023-05-06T10:59:40.829Z,954.12
2023-05-06T11:00:40.831Z,954.13
2023-05-06T11:01:40.833Z,954.12
2023-05-06T11:02:40.826Z,954.12
2023-05-06T11:03:40.831Z,954.08
2023-05-06T11:04:40.754Z,954.08
2023-05-06T11:05:40.779Z,954.12
2023-05-06T11:06:40.740Z,954.15
2023-05-06T11:07:40.729Z,954.16
2023-05-06T11:08:40.711Z,954.12
2023-05-06T11:09:40.725Z,954.10
2023-05-06T11:10:40.691Z,954.11
2023-05-06T11:11:40.716Z,954.16
2023-05-06T11:12:40.665Z,954.20
2023-05-06T11:13:40.660Z,954.18
2023-05-06T11:14:40.635Z,954.19
2023-05-06T11:15:40.666Z,954.21
2023-05-06T11:16:40.617Z,954.18
2023-05-06T11:17:40.603Z,954.23
2023-05-06T11:18:40.601Z,954.21
2023-05-06T11:19:40.582Z,954.21
2023-05-06T11:20:40.548Z,954.20
2023-05-06T11:21:40.558Z,954.20
2023-05-06T11:22:40.545Z,954.21
2023-05-06T11:23:40.513Z,954.18
2023-05-06T11:24:40.485Z,954.18
2023-05-06T11:25:40.493Z,954.18
2023-05-06T11:26:40.540Z,954.15
2023-05-06T11:27:40.591Z,954.23
2023-05-06T11:28:40.477Z,954.21
2023-05-06T11:29:40.481Z,954.21
2023-05-06T11:30:40.450Z,954.23
2023-05-06T11:31:40.428Z,954.20
2023-05-06T11:32:40.474Z,954.20
2023-05-06T11:33:40.366Z,954.19
2023-05-06T11:34:40.358Z,954.16
2023-05-06T11:35:40.454Z,954.14
2023-05-06T11:36:40.354Z,954.17
2023-05-06T11:37:40.362Z,954.15
2023-05-06T11:38:40.313Z,954.18
2023-05-06T11:39:41.171Z,954.19
2023-05-06T11:40:40.293Z,954.19
2023-05-06T11:41:40.262Z,954.17
2023-05-06T11:42:40.293Z,954.15
2023-05-06T11:43:40.264Z,954.16
2023-05-06T11:44:40.220Z,954.17
2023-05-06T11:45:40.224Z,954.13
2023-05-06T11:46:40.300Z,954.10
2023-05-06T11:47:40.257Z,954.11
2023-05-06T11:48:40.172Z,954.11
2023-05-06T11:49:40.169Z,954.09
2023-05-06T11:50:40.147Z,954.11
2023-05-06T11:51:40.164Z,954.07
2023-05-06T11:52:40.115Z,954.05
2023-05-06T11:53:40.117Z,954.02
2023-05-06T11:54:40.105Z,954.04
2023-05-06T11:55:40.071Z,954.02
2023-05-06T11:56:40.090Z,954.02
2023-05-06T11:57:40.084Z,953.97
2023-05-06T11:58:40.049Z,953.95
2023-05-06T11:59:40.041Z,953.93
2023-05-06T12:00:40.018Z,953.90
2023-05-06T12:01:39.990Z,953.93
2023-05-06T12:02:40.138Z,953.96
2023-05-06T12:03:40.113Z,953.91
2023-05-06T12:04:40.112Z,953.94
2023-05-06T12:05:39.955Z,953.93
2023-05-06T12:06:39.941Z,953.93
2023-05-06T12:07:39.944Z,953.98
2023-05-06T12:08:39.916Z,954.00
2023-05-06T12:09:39.901Z,954.00
2023-05-06T12:10:39.885Z,953.98
2023-05-06T12:11:39.862Z,953.98
2023-05-06T12:12:39.905Z,953.91
2023-05-06T12:13:39.866Z,953.93
2023-05-06T12:14:39.908Z,953.95
2023-05-06T12:15:39.848Z,953.86
2023-05-06T12:16:39.894Z,953.81
2023-05-06T12:17:39.826Z,953.82
2023-05-06T12:18:39.808Z,953.82
2023-05-06T12:19:39.768Z,953.80
2023-05-06T12:20:39.743Z,953.81
2023-05-06T12:21:39.740Z,953.78
2023-05-06T12:22:39.741Z,953.78
2023-05-06T12:23:39.900Z,953.76
2023-05-06T12:24:39.723Z,953.76
2023-05-06T12:25:39.669Z,953.73
2023-05-06T12:26:39.668Z,953.77
2023-05-06T12:27:39.660Z,953.69
2023-05-06T12:28:39.675Z,953.73